INFORMACIÓN METAR y TAF
METAR FOR LIPE
ADDS - METARS form results

(2228 UTC 17 June 2021)
Data provider http://aviationweather.gov/metar/data/
 
METAR text: LIPE 172220Z 06004KT CAVOK 24/16 Q1016
Conditions at: LIPE (BOLOGNA/BORGO (A, IT) observed 2220 UTC 17 June 2021
Temperature: 24.0°C (75°F)
Dewpoint: 16.0°C (61°F) [RH = 61%]
Pressure (altimeter): 30.00 inches Hg (1016.0 mb)
Winds: from the ENE (60 degrees) at 5 MPH (4 knots; 2.1 m/s)
Visibility: 6 or more miles (10+ km)
Ceiling: ceiling and visibility are OK
Clouds: unknown
Weather: no significant weather observed at this time

METAR text: LIPE 172150Z 10006KT CAVOK 23/16 Q1016
Conditions at: LIPE (BOLOGNA/BORGO (A, IT) observed 2150 UTC 17 June 2021
Temperature: 23.0°C (73°F)
Dewpoint: 16.0°C (61°F) [RH = 65%]
Pressure (altimeter): 30.00 inches Hg (1016.0 mb)
Winds: from the E (100 degrees) at 7 MPH (6 knots; 3.1 m/s)
Visibility: 6 or more miles (10+ km)
Ceiling: ceiling and visibility are OK
Clouds: unknown
Weather: no significant weather observed at this time

Forecast for: LIPE (BOLOGNA/BORGO (A, IT)
Text: TAF LIPE 171700Z 1718/1818 VRB05KT CAVOK
Forecast period: 1800 UTC 17 June 2021 to 0800 UTC 18 June 2021
Forecast type: FROM: standard forecast or significant change
Winds: variable direction winds at 6 MPH (5 knots; 2.6 m/s)
Visibility: 6 or more miles (10+ km)
Ceiling: unknown
Clouds: missing
Weather: NSW  (no significant weather)
Text: BECMG 1808/1810 22010KT
Forecast period: 0800 to 1800 UTC 18 June 2021
Forecast type: BECOMING: Conditions expected to become as follows by 1000 UTC 18 June 2021
Winds: from the SW (220 degrees) at 12 MPH (10 knots; 5.1 m/s)
Visibility: 6 or more miles (10+ km)
Ceiling: unknown
Clouds: missing
Weather: NSW  (no significant weather)

 MAPA DE AEROPUERTO

 INFORMACIÓN DE PISTA
Pista 12 Longitud 9186 ft Ancho 150 ft
Elevación 120 ft Umbral desplazado 1007 ft Rumbo de pista 117
Pista 30 Longitud 9186 ft Ancho 150 ft
Elevación 120 ft Umbral desplazado 1188 ft Rumbo de pista 297

 FRECUANCIAS DEL AEROPUERTO
Tipo APP Nombre APP Frecuencia 120.1 MHZ
Tipo ATIS Nombre ATIS Frecuencia 134.875 MHZ
Tipo GND Nombre GND Frecuencia 129.925 MHZ
Tipo TWR Nombre TWR Frecuencia 120.8 MHZ

 RADIO AYUDAS DEL AEROPUERTO
Tipo VOR-DME Nombre Bologna Frecuencia 112200 KHZ
Tipo NDB Nombre Bologna Frecuencia 413 KHZ



Powered by Virtual Airlines Manager [v2.6.2]